Izmir Cigli Air Force Base, Turkey

3:11 AM EET on February 10, 2016 (GMT +0200)
Bayrakli, Futurk Weather Beta | | Change Station
CLOSE
Current Station
Personal Weather Station
Location: Izmir-Guzelyali,
Elevation: 150 ft
Nearby Weather Stations

Elev 150 ft 38.47 °N, 27.17 °E | Updated 19 seconds ago

Clear
Clear
52.1 °F
Feels Like 52.1 °F
N
1.0
Wind Variable Wind from NE
Gusts 8.4 mph

Today
High -- | Low -- °F
--% Chance of Precip.
Yesterday
High -- | Low -- °F
Precip. -- in
Pressure 30.15 in
Visibility -9999.0 miles
Clouds
Dew Point 38 °F
Humidity 59%
Rainfall 0.02 in
Snow Depth Not available.
7:09 AM 5:43 PM
Waxing Crescent, 3% visible
METAR LTBJ 100050Z 16003KT CAVOK 03/02 Q1021 NOSIG
Pressure 30.15 in
Visibility -9999.0 miles
Clouds
Dew Point 38 °F
Humidity 59%
Rainfall 0.02 in
Snow Depth Not available.
7:09 AM 5:43 PM
Waxing Crescent, 3% visible
METAR LTBJ 100050Z 16003KT CAVOK 03/02 Q1021 NOSIG

10-Day Weather Forecast

Almanac

Astronomy

Feb. 10, 2016 Rise Set
Actual Time
Civil Twilight
Nautical Twilight
Astronomical Twilight
Moon
Length of Visible Light
Length of Day
Tomorrow will be .
, % of the Moon is Illuminated

Today's Extremes

Country Highs Country Lows

Community

WunderPhotos

Upload Photos

1,891,752 photos uploaded!

WunderBlog® & News

Nearby

Air Quality

  Air Quality AQ Index Pollutant
Not available.

Snow Depth

Station Depth Elevation

Earthquake Activity

City Distance Mag. Time & Date
Minimum magnitude displayed is 2.5.

Coastal Water Temperatures

Place Temperature

Stations

Nearby Weather Stations

Station Location Temp. Windchill Dew Point Humidity Wind Precip. Elev Updated Type